createdAt,value
2023-03-11T00:00:37.428Z,1.88
2023-03-11T00:03:04.841Z,1.40
2023-03-11T00:05:34.316Z,1.45
2023-03-11T00:08:01.532Z,1.35
2023-03-11T00:10:31.098Z,2.20
2023-03-11T00:13:01.059Z,1.73
2023-03-11T00:15:28.616Z,2.33
2023-03-11T00:17:55.579Z,1.80
2023-03-11T00:20:24.839Z,2.10
2023-03-11T00:22:51.982Z,1.73
2023-03-11T00:25:19.134Z,3.95
2023-03-11T00:27:45.752Z,1.88
2023-03-11T00:30:13.658Z,1.73
2023-03-11T00:32:40.627Z,1.63
2023-03-11T00:35:09.218Z,1.70
2023-03-11T00:37:35.828Z,1.83
2023-03-11T00:40:02.436Z,2.28
2023-03-11T00:42:28.978Z,1.55
2023-03-11T00:44:55.597Z,1.60
2023-03-11T00:47:22.183Z,1.60
2023-03-11T00:49:48.797Z,1.55
2023-03-11T00:52:15.368Z,1.50
2023-03-11T00:54:41.917Z,1.95
2023-03-11T00:57:08.882Z,1.30
2023-03-11T00:59:35.840Z,1.92
2023-03-11T01:02:02.512Z,1.83
2023-03-11T01:04:29.203Z,1.60
2023-03-11T01:06:55.764Z,1.35
2023-03-11T01:09:22.421Z,1.42
2023-03-11T01:11:49.096Z,1.40
2023-03-11T01:14:15.723Z,1.50
2023-03-11T01:16:44.248Z,1.67
2023-03-11T01:19:10.807Z,1.60
2023-03-11T01:21:37.478Z,1.67
2023-03-11T01:24:04.312Z,1.50
2023-03-11T01:26:31.264Z,1.60
2023-03-11T01:28:57.917Z,1.38
2023-03-11T01:31:24.512Z,1.33
2023-03-11T01:33:51.080Z,1.30
2023-03-11T01:36:17.657Z,1.67
2023-03-11T01:38:44.222Z,1.50
2023-03-11T01:41:11.809Z,1.58
2023-03-11T01:43:44.661Z,1.75
2023-03-11T01:47:00.054Z,1.75
2023-03-11T01:49:32.983Z,1.95
2023-03-11T01:52:07.657Z,1.30
2023-03-11T01:54:39.932Z,1.42
2023-03-11T01:57:10.002Z,1.25
2023-03-11T01:59:40.663Z,1.42
2023-03-11T02:02:10.476Z,1.30
2023-03-11T02:04:38.542Z,1.30
2023-03-11T02:07:08.088Z,1.50
2023-03-11T02:09:34.836Z,1.08
2023-03-11T02:12:02.187Z,1.00
2023-03-11T02:14:31.357Z,1.15
2023-03-11T02:16:58.751Z,0.88
2023-03-11T02:19:41.208Z,1.20
2023-03-11T02:22:10.352Z,1.10
2023-03-11T02:24:36.914Z,1.13
2023-03-11T02:27:08.675Z,1.13
2023-03-11T02:29:35.455Z,1.05
2023-03-11T02:32:07.989Z,1.00
2023-03-11T02:34:38.315Z,0.90
2023-03-11T02:37:14.272Z,1.13
2023-03-11T02:39:47.264Z,0.82
2023-03-11T02:42:23.772Z,1.05
2023-03-11T02:44:58.310Z,1.05
2023-03-11T02:47:28.226Z,1.00
2023-03-11T02:49:56.748Z,1.02
2023-03-11T02:52:29.012Z,0.95
2023-03-11T02:54:55.647Z,0.82
2023-03-11T02:57:22.251Z,1.77
2023-03-11T02:59:48.980Z,1.08
2023-03-11T03:02:15.565Z,1.10
2023-03-11T03:04:42.278Z,1.05
2023-03-11T03:07:09.102Z,0.40
2023-03-11T03:09:37.642Z,0.85
2023-03-11T03:12:04.825Z,0.50
2023-03-11T03:14:33.060Z,0.55
2023-03-11T03:16:59.875Z,0.45
2023-03-11T03:19:26.768Z,0.50
2023-03-11T03:21:54.243Z,0.55
2023-03-11T03:24:22.277Z,0.32
2023-03-11T03:26:48.979Z,0.22
2023-03-11T03:29:15.562Z,0.40
2023-03-11T03:31:42.591Z,0.98
2023-03-11T03:34:09.711Z,0.60
2023-03-11T03:36:36.898Z,0.30
2023-03-11T03:39:05.252Z,0.70
2023-03-11T03:41:35.448Z,0.35
2023-03-11T03:44:03.450Z,0.28
2023-03-11T03:46:31.292Z,0.50
2023-03-11T03:48:59.120Z,0.82
2023-03-11T03:51:26.576Z,0.20
2023-03-11T03:54:04.894Z,0.38
2023-03-11T03:56:31.499Z,0.95
2023-03-11T03:58:58.760Z,0.47
2023-03-11T04:01:30.097Z,0.45
2023-03-11T04:03:57.980Z,0.30
2023-03-11T04:06:26.688Z,0.45
2023-03-11T04:08:58.015Z,0.30
2023-03-11T04:11:29.201Z,0.82
2023-03-11T04:13:56.661Z,0.40
2023-03-11T04:16:24.066Z,0.60
2023-03-11T04:18:54.308Z,0.30
2023-03-11T04:21:21.756Z,0.50
2023-03-11T04:23:48.352Z,0.40
2023-03-11T04:26:16.978Z,0.40
2023-03-11T04:28:43.679Z,0.30
2023-03-11T04:31:11.640Z,0.40
2023-03-11T04:33:38.568Z,0.70
2023-03-11T04:36:09.426Z,0.40
2023-03-11T04:38:37.818Z,0.57
2023-03-11T04:41:07.169Z,0.43
2023-03-11T04:43:38.347Z,0.47
2023-03-11T04:46:05.147Z,0.20
2023-03-11T04:48:31.996Z,0.43
2023-03-11T04:50:58.961Z,0.40
2023-03-11T04:53:26.357Z,0.38
2023-03-11T04:55:53.829Z,0.32
2023-03-11T04:58:21.173Z,0.35
2023-03-11T05:00:48.095Z,0.40
2023-03-11T05:03:15.376Z,0.28
2023-03-11T05:05:42.104Z,0.45
2023-03-11T05:08:09.116Z,0.38
2023-03-11T05:10:36.680Z,0.30
2023-03-11T05:13:05.964Z,0.70
2023-03-11T05:15:36.581Z,0.73
2023-03-11T05:18:05.059Z,0.60
2023-03-11T05:20:32.616Z,0.40
2023-03-11T05:22:59.537Z,0.30
2023-03-11T05:25:28.260Z,0.40
2023-03-11T05:27:54.933Z,0.40
2023-03-11T05:30:21.613Z,0.60
2023-03-11T05:32:49.312Z,1.60
2023-03-11T05:35:17.230Z,0.30
2023-03-11T05:37:43.943Z,0.57
2023-03-11T05:40:12.179Z,0.45
2023-03-11T05:42:41.280Z,0.40
2023-03-11T05:45:10.099Z,0.40
2023-03-11T05:47:38.233Z,0.30
2023-03-11T05:50:06.514Z,0.30
2023-03-11T05:52:33.957Z,0.38
2023-03-11T05:55:00.842Z,0.40
2023-03-11T05:57:29.597Z,0.68
2023-03-11T05:59:56.848Z,0.43
2023-03-11T06:02:24.370Z,0.75
2023-03-11T06:04:51.242Z,0.15
2023-03-11T06:07:18.044Z,0.35
2023-03-11T06:09:50.377Z,0.30
2023-03-11T06:12:18.602Z,0.50
2023-03-11T06:15:01.270Z,0.30
2023-03-11T06:17:30.306Z,0.52
2023-03-11T06:19:57.408Z,0.43
2023-03-11T06:22:24.292Z,0.35
2023-03-11T06:24:50.959Z,0.52
2023-03-11T06:27:18.194Z,0.68
2023-03-11T06:29:48.350Z,0.43
2023-03-11T06:32:15.670Z,0.60
2023-03-11T06:34:42.247Z,0.60
2023-03-11T06:37:10.093Z,0.30
2023-03-11T06:39:36.656Z,0.55
2023-03-11T06:42:03.801Z,0.50
2023-03-11T06:44:30.410Z,0.50
2023-03-11T06:46:57.139Z,0.45
2023-03-11T06:49:23.740Z,0.40
2023-03-11T06:51:50.357Z,0.75
2023-03-11T06:54:17.022Z,0.70
2023-03-11T06:56:43.677Z,0.50
2023-03-11T06:59:10.662Z,0.50
2023-03-11T07:01:37.280Z,1.05
2023-03-11T07:04:06.503Z,0.47
2023-03-11T07:06:35.820Z,0.30
2023-03-11T07:09:08.036Z,0.50
2023-03-11T07:11:38.253Z,0.45
2023-03-11T07:16:42.211Z,0.82
2023-03-11T07:19:16.480Z,0.57
2023-03-11T07:21:43.168Z,0.60
2023-03-11T07:24:12.614Z,0.47
2023-03-11T07:26:39.169Z,0.68
2023-03-11T07:29:05.756Z,0.52
2023-03-11T07:31:34.213Z,0.50
2023-03-11T07:34:03.364Z,0.25
2023-03-11T07:36:29.944Z,0.70
2023-03-11T07:38:59.551Z,0.65
2023-03-11T07:41:26.929Z,0.50
2023-03-11T07:43:57.857Z,0.80
2023-03-11T07:46:25.788Z,0.60
2023-03-11T07:51:54.164Z,1.00
2023-03-11T07:54:20.755Z,0.47
2023-03-11T07:56:47.486Z,0.73
2023-03-11T07:59:14.199Z,0.50
2023-03-11T08:01:41.434Z,0.70
2023-03-11T08:04:09.833Z,0.65
2023-03-11T08:06:37.647Z,0.68
2023-03-11T08:09:07.365Z,1.00
2023-03-11T08:11:34.131Z,0.60
2023-03-11T08:14:00.979Z,0.90
2023-03-11T08:16:27.875Z,0.77
2023-03-11T08:18:54.586Z,0.77
2023-03-11T08:22:11.034Z,0.75
2023-03-11T08:24:37.623Z,0.63
2023-03-11T08:27:04.269Z,0.50
2023-03-11T08:29:30.855Z,0.70
2023-03-11T08:31:59.000Z,1.50
2023-03-11T08:34:27.583Z,0.40
2023-03-11T08:36:54.445Z,0.50
2023-03-11T08:39:20.961Z,0.60
2023-03-11T08:41:47.517Z,0.50
2023-03-11T08:44:14.031Z,0.60
2023-03-11T08:46:40.811Z,0.50
2023-03-11T08:49:07.518Z,0.63
2023-03-11T08:51:35.239Z,0.70
2023-03-11T08:54:02.181Z,0.52
2023-03-11T08:56:29.039Z,0.73
2023-03-11T08:58:55.680Z,0.80
2023-03-11T09:01:23.611Z,0.82
2023-03-11T09:03:50.360Z,0.57
2023-03-11T09:06:17.873Z,0.50
2023-03-11T09:08:45.304Z,0.85
2023-03-11T09:11:15.220Z,0.63
2023-03-11T09:13:42.387Z,0.77
2023-03-11T09:16:14.864Z,0.98
2023-03-11T09:18:41.584Z,0.80
2023-03-11T09:21:08.570Z,0.50
2023-03-11T09:23:35.211Z,0.60
2023-03-11T09:26:01.748Z,0.38
2023-03-11T09:28:28.312Z,0.60
2023-03-11T09:30:54.920Z,0.82
2023-03-11T09:33:21.603Z,0.65
2023-03-11T09:35:48.625Z,0.40
2023-03-11T09:38:15.357Z,0.88
2023-03-11T09:41:01.853Z,0.60
2023-03-11T09:43:44.379Z,0.93
2023-03-11T09:46:39.343Z,0.90
2023-03-11T09:49:26.078Z,0.63
2023-03-11T09:52:17.207Z,0.90
2023-03-11T09:54:52.717Z,1.70
2023-03-11T09:57:24.740Z,0.98
2023-03-11T09:59:51.468Z,0.70
2023-03-11T10:02:19.886Z,0.90
2023-03-11T10:04:54.626Z,0.60
2023-03-11T10:07:25.784Z,0.73
2023-03-11T10:09:57.618Z,0.70
2023-03-11T10:12:58.038Z,1.48
2023-03-11T10:15:42.912Z,1.67
2023-03-11T10:18:21.696Z,1.55
2023-03-11T10:21:06.447Z,1.80
2023-03-11T10:23:42.900Z,1.83
2023-03-11T10:26:15.524Z,0.98
2023-03-11T10:28:48.879Z,1.55
2023-03-11T10:31:24.474Z,2.17
2023-03-11T10:33:56.858Z,2.45
2023-03-11T10:36:31.345Z,1.50
2023-03-11T10:38:57.967Z,1.08
2023-03-11T10:41:55.926Z,0.95
2023-03-11T10:44:29.943Z,1.23
2023-03-11T10:46:56.581Z,1.02
2023-03-11T10:49:23.241Z,1.13
2023-03-11T10:51:52.509Z,1.30
2023-03-11T10:54:29.636Z,1.10
2023-03-11T10:57:01.274Z,0.90
2023-03-11T10:59:42.466Z,1.42
2023-03-11T11:02:27.151Z,1.23
2023-03-11T11:05:30.168Z,1.23
2023-03-11T11:08:17.197Z,1.38
2023-03-11T11:10:55.472Z,1.13
2023-03-11T11:13:27.367Z,1.88
2023-03-11T11:15:56.852Z,1.40
2023-03-11T11:18:35.736Z,1.40
2023-03-11T11:21:05.309Z,1.23
2023-03-11T11:23:36.546Z,1.23
2023-03-11T11:26:06.641Z,1.80
2023-03-11T11:28:33.845Z,1.10
2023-03-11T11:31:03.637Z,1.33
2023-03-11T11:33:37.742Z,1.20
2023-03-11T11:36:05.187Z,1.23
2023-03-11T11:38:32.610Z,1.05
2023-03-11T11:41:02.835Z,1.15
2023-03-11T11:43:51.710Z,0.88
2023-03-11T11:46:21.832Z,0.90
2023-03-11T11:49:00.306Z,1.10
2023-03-11T11:51:33.398Z,1.05
2023-03-11T11:54:17.346Z,0.95
2023-03-11T11:59:16.728Z,1.00
2023-03-11T12:01:46.811Z,0.80
2023-03-11T12:04:48.532Z,0.60
2023-03-11T12:07:33.770Z,0.63
2023-03-11T12:10:22.313Z,0.80
2023-03-11T12:13:09.197Z,0.55
2023-03-11T12:15:40.441Z,0.52
2023-03-11T12:18:12.564Z,1.00
2023-03-11T12:20:48.116Z,0.80
2023-03-11T12:23:27.966Z,0.90
2023-03-11T12:26:14.613Z,0.88
2023-03-11T12:28:46.153Z,0.85
2023-03-11T12:31:13.535Z,0.82
2023-03-11T12:34:02.316Z,0.85
2023-03-11T12:36:38.082Z,0.70
2023-03-11T12:39:07.149Z,0.80
2023-03-11T12:41:42.749Z,0.45
2023-03-11T12:44:25.619Z,0.77
2023-03-11T12:46:55.551Z,0.50
2023-03-11T12:49:30.507Z,0.57
2023-03-11T12:52:08.908Z,0.70
2023-03-11T12:54:39.523Z,0.52
2023-03-11T12:57:18.149Z,0.63
2023-03-11T13:00:23.084Z,0.55
2023-03-11T13:03:11.305Z,0.40
2023-03-11T13:05:44.658Z,0.50
2023-03-11T13:08:16.332Z,0.55
2023-03-11T13:10:47.992Z,0.85
2023-03-11T13:13:29.737Z,0.70
2023-03-11T13:15:56.811Z,0.60
2023-03-11T13:18:33.060Z,0.30
2023-03-11T13:21:03.932Z,0.40
2023-03-11T13:23:30.496Z,0.47
2023-03-11T13:25:57.043Z,1.08
2023-03-11T13:28:49.170Z,0.52
2023-03-11T13:31:35.074Z,0.43
2023-03-11T13:34:44.191Z,0.40
2023-03-11T13:37:20.029Z,0.40
2023-03-11T13:40:13.961Z,0.30
2023-03-11T13:42:45.691Z,0.40
2023-03-11T13:45:36.110Z,0.40
2023-03-11T13:48:45.198Z,0.30
2023-03-11T13:51:21.843Z,0.68
2023-03-11T13:53:58.971Z,0.70
2023-03-11T13:56:32.241Z,0.40
2023-03-11T13:59:27.075Z,0.38
2023-03-11T14:01:57.254Z,0.50
2023-03-11T14:04:27.785Z,0.30
2023-03-11T14:06:54.751Z,0.50
2023-03-11T14:09:22.914Z,0.30
2023-03-11T14:11:49.712Z,0.40
2023-03-11T14:14:52.031Z,0.60
2023-03-11T14:17:20.095Z,0.35
2023-03-11T14:20:07.040Z,0.43
2023-03-11T14:22:34.219Z,0.50
2023-03-11T14:25:03.425Z,0.75
2023-03-11T14:27:30.005Z,0.43
2023-03-11T14:29:56.649Z,0.30
2023-03-11T14:32:31.445Z,0.28
2023-03-11T14:34:58.332Z,0.60
2023-03-11T14:37:36.613Z,0.43
2023-03-11T14:40:04.996Z,0.30
2023-03-11T14:42:36.627Z,0.40
2023-03-11T14:45:06.164Z,0.43
2023-03-11T14:47:41.452Z,0.50
2023-03-11T14:50:18.991Z,0.40
2023-03-11T14:52:56.544Z,0.40
2023-03-11T14:55:36.394Z,0.40
2023-03-11T14:58:23.851Z,0.40
2023-03-11T15:00:55.651Z,0.50
2023-03-11T15:03:23.987Z,0.50
2023-03-11T15:05:52.834Z,0.50
2023-03-11T15:08:21.126Z,0.55
2023-03-11T15:11:07.974Z,0.43
2023-03-11T15:13:35.508Z,0.45
2023-03-11T15:16:05.490Z,0.90
2023-03-11T15:18:38.629Z,5.57
2023-03-11T15:21:19.044Z,4.25
2023-03-11T15:23:56.799Z,1.80
2023-03-11T15:26:26.221Z,0.90
2023-03-11T15:29:06.857Z,0.93
2023-03-11T15:31:38.405Z,0.60
2023-03-11T15:34:18.322Z,0.90
2023-03-11T15:36:47.650Z,0.90
2023-03-11T15:39:17.393Z,0.60
2023-03-11T15:41:57.090Z,0.90
2023-03-11T15:44:32.746Z,0.70
2023-03-11T15:47:00.426Z,0.70
2023-03-11T15:49:28.291Z,1.05
2023-03-11T15:52:01.833Z,0.98
2023-03-11T15:54:28.642Z,0.52
2023-03-11T15:56:56.433Z,0.80
2023-03-11T15:59:23.128Z,0.85
2023-03-11T16:01:49.960Z,0.70
2023-03-11T16:04:18.814Z,0.82
2023-03-11T16:06:49.563Z,1.08
2023-03-11T16:09:20.898Z,0.82
2023-03-11T16:11:47.631Z,0.80
2023-03-11T16:14:19.030Z,0.90
2023-03-11T16:16:46.386Z,0.20
2023-03-11T16:19:13.403Z,0.60
2023-03-11T16:21:42.803Z,0.20
2023-03-11T16:24:16.508Z,0.30
2023-03-11T16:29:18.936Z,0.70
2023-03-11T16:31:45.802Z,1.38
2023-03-11T16:34:12.352Z,0.80
2023-03-11T16:36:38.915Z,1.00
2023-03-11T16:39:05.786Z,1.00
2023-03-11T16:41:43.883Z,1.88
2023-03-11T16:44:10.641Z,1.08
2023-03-11T16:46:37.261Z,0.93
2023-03-11T16:49:04.064Z,7.00
2023-03-11T16:51:31.171Z,4.30
2023-03-11T16:53:57.790Z,3.40
2023-03-11T16:56:24.409Z,2.17
2023-03-11T16:58:51.019Z,1.00
2023-03-11T17:01:19.066Z,1.55
2023-03-11T17:03:48.541Z,1.85
2023-03-11T17:06:15.990Z,1.30
2023-03-11T17:08:46.029Z,1.13
2023-03-11T17:11:21.044Z,0.95
2023-03-11T17:13:47.618Z,2.58
2023-03-11T17:16:14.390Z,6.10
2023-03-11T17:18:41.055Z,4.85
2023-03-11T17:21:13.136Z,2.40
2023-03-11T17:23:39.786Z,4.30
2023-03-11T17:26:17.037Z,1.50
2023-03-11T17:28:43.702Z,7.32
2023-03-11T17:31:14.935Z,13.63
2023-03-11T17:33:42.379Z,19.80
2023-03-11T17:36:11.009Z,24.13
2023-03-11T17:38:37.592Z,59.28
2023-03-11T17:41:22.772Z,8.77
2023-03-11T17:43:51.450Z,3.25
2023-03-11T17:46:19.768Z,4.03
2023-03-11T17:48:47.850Z,1.60
2023-03-11T17:51:20.199Z,1.55
2023-03-11T17:53:47.750Z,2.50
2023-03-11T17:56:16.429Z,5.05
2023-03-11T17:58:43.560Z,5.43
2023-03-11T18:01:22.137Z,7.30
2023-03-11T18:03:49.514Z,11.05
2023-03-11T18:06:17.607Z,5.80
2023-03-11T18:08:44.190Z,9.65
2023-03-11T18:11:15.916Z,11.75
2023-03-11T18:13:43.646Z,13.40
2023-03-11T18:16:13.338Z,12.68
2023-03-11T18:18:40.982Z,9.80
2023-03-11T18:21:11.088Z,13.13
2023-03-11T18:23:38.753Z,99.00
2023-03-11T18:26:07.292Z,213.63
2023-03-11T18:28:34.152Z,116.72
2023-03-11T18:31:08.918Z,73.75
2023-03-11T18:33:36.014Z,62.33
2023-03-11T18:36:22.811Z,99.63
2023-03-11T18:38:50.583Z,36.30
2023-03-11T18:41:17.190Z,19.98
2023-03-11T18:43:43.858Z,7.85
2023-03-11T18:46:12.749Z,3.40
2023-03-11T18:48:39.531Z,3.53
2023-03-11T18:51:08.304Z,1.98
2023-03-11T18:53:36.004Z,1.40
2023-03-11T18:56:08.338Z,1.77
2023-03-11T18:58:34.948Z,1.45
2023-03-11T19:01:06.172Z,1.00
2023-03-11T19:03:32.816Z,1.00
2023-03-11T19:05:59.612Z,1.10
2023-03-11T19:08:26.906Z,0.90
2023-03-11T19:10:53.890Z,1.17
2023-03-11T19:13:20.652Z,1.60
2023-03-11T19:15:47.368Z,1.50
2023-03-11T19:18:14.627Z,1.00
2023-03-11T19:20:41.263Z,1.60
2023-03-11T19:23:08.181Z,0.80
2023-03-11T19:25:35.412Z,0.98
2023-03-11T19:28:02.030Z,1.00
2023-03-11T19:30:28.669Z,1.20
2023-03-11T19:32:55.744Z,1.20
2023-03-11T19:35:23.490Z,1.33
2023-03-11T19:37:50.778Z,1.20
2023-03-11T19:40:17.693Z,1.40
2023-03-11T19:42:44.451Z,2.25
2023-03-11T19:45:11.545Z,3.08
2023-03-11T19:47:39.109Z,2.28
2023-03-11T19:50:06.906Z,1.60
2023-03-11T19:52:35.543Z,1.48
2023-03-11T19:55:02.386Z,1.15
2023-03-11T19:57:28.981Z,1.23
2023-03-11T19:59:55.826Z,1.25
2023-03-11T20:02:22.425Z,1.05
2023-03-11T20:04:49.095Z,1.27
2023-03-11T20:07:15.644Z,1.13
2023-03-11T20:09:42.225Z,1.63
2023-03-11T20:12:08.854Z,1.48
2023-03-11T20:14:35.405Z,1.40
2023-03-11T20:17:02.007Z,1.70
2023-03-11T20:19:28.763Z,1.20
2023-03-11T20:21:55.374Z,1.17
2023-03-11T20:24:21.930Z,1.20
2023-03-11T20:26:51.112Z,1.30
2023-03-11T20:29:18.672Z,1.08
2023-03-11T20:31:45.358Z,1.77
2023-03-11T20:34:12.636Z,1.10
2023-03-11T20:36:39.577Z,1.23
2023-03-11T20:39:09.938Z,1.48
2023-03-11T20:41:39.699Z,1.80
2023-03-11T20:44:07.570Z,1.65
2023-03-11T20:46:34.705Z,1.40
2023-03-11T20:49:02.038Z,1.50
2023-03-11T20:51:28.697Z,1.40
2023-03-11T20:53:55.590Z,1.40
2023-03-11T20:56:24.425Z,1.35
2023-03-11T20:58:52.472Z,1.50
2023-03-11T21:01:24.779Z,1.38
2023-03-11T21:03:56.248Z,1.80
2023-03-11T21:06:28.698Z,1.58
2023-03-11T21:08:56.602Z,2.13
2023-03-11T21:11:24.652Z,2.20
2023-03-11T21:13:51.832Z,1.88
2023-03-11T21:16:18.711Z,1.80
2023-03-11T21:18:48.599Z,1.90
2023-03-11T21:21:16.996Z,2.50
2023-03-11T21:23:44.126Z,2.05
2023-03-11T21:26:12.483Z,1.60
2023-03-11T21:28:40.107Z,1.83
2023-03-11T21:31:10.919Z,1.75
2023-03-11T21:33:38.878Z,2.20
2023-03-11T21:36:06.464Z,1.85
2023-03-11T21:38:33.969Z,2.38
2023-03-11T21:41:07.825Z,1.75
2023-03-11T21:43:35.136Z,2.00
2023-03-11T21:46:02.397Z,1.73
2023-03-11T21:48:29.142Z,2.00
2023-03-11T21:50:55.796Z,2.13
2023-03-11T21:53:22.492Z,2.15
2023-03-11T21:55:50.735Z,2.28
2023-03-11T21:58:17.517Z,2.25
2023-03-11T22:00:44.399Z,2.10
2023-03-11T22:03:11.294Z,2.20
2023-03-11T22:05:38.035Z,2.40
2023-03-11T22:08:04.956Z,2.47
2023-03-11T22:10:32.445Z,2.60
2023-03-11T22:12:59.112Z,2.38
2023-03-11T22:15:25.902Z,2.20
2023-03-11T22:17:52.546Z,2.42
2023-03-11T22:20:19.232Z,2.40
2023-03-11T22:22:45.898Z,2.33
2023-03-11T22:25:12.539Z,2.20
2023-03-11T22:27:40.285Z,2.30
2023-03-11T22:30:07.765Z,2.35
2023-03-11T22:32:34.763Z,2.58
2023-03-11T22:35:01.360Z,2.33
2023-03-11T22:37:28.032Z,2.58
2023-03-11T22:39:54.599Z,3.15
2023-03-11T22:42:21.151Z,2.47
2023-03-11T22:44:47.689Z,2.28
2023-03-11T22:47:14.395Z,2.28
2023-03-11T22:49:40.996Z,2.80
2023-03-11T22:52:07.525Z,2.17
2023-03-11T22:54:34.078Z,2.70
2023-03-11T22:57:00.687Z,2.63
2023-03-11T22:59:30.572Z,2.83
2023-03-11T23:01:57.355Z,3.30
2023-03-11T23:04:24.002Z,3.10
2023-03-11T23:06:50.553Z,3.67
2023-03-11T23:09:17.180Z,4.30
2023-03-11T23:11:43.760Z,3.70
2023-03-11T23:14:10.296Z,5.93
2023-03-11T23:16:37.087Z,5.18
2023-03-11T23:19:03.775Z,4.90
2023-03-11T23:21:32.115Z,4.80
2023-03-11T23:24:02.462Z,5.00
2023-03-11T23:26:29.734Z,4.88
2023-03-11T23:28:56.747Z,5.13
2023-03-11T23:31:24.920Z,5.65
2023-03-11T23:33:51.726Z,4.93
2023-03-11T23:36:20.970Z,5.45
2023-03-11T23:38:47.936Z,5.28
2023-03-11T23:41:16.394Z,4.88
2023-03-11T23:43:43.050Z,5.43
2023-03-11T23:46:10.310Z,5.40
2023-03-11T23:48:37.620Z,5.32
2023-03-11T23:51:04.866Z,5.32
2023-03-11T23:53:32.544Z,5.40
2023-03-11T23:55:59.279Z,4.80
2023-03-11T23:58:25.925Z,4.82
